Hauptseite
METAR-TAF:

METAR-TAF

Flughäfen :

Siegerlandflughafen

Siegen, Deutschland

Breite: 50-42-28N, Länge: 008-04-59E, Höhe: 602 m

Beobachtung

Neuester Wetterbericht von vor 32 Minuten, um 16:50 UTC
Wind 6 kt aus Südost
Temperatur 3°C
Luftfeuchtigkeit 81%
Luftdruck 1000 hPa
Sichtweite 10 km oder mehr
Leicht bewölkt in der Höhe von 4600 ft

METAR: EDGS 251650Z 13006KT 9999 FEW046 03/00 Q1000

Zeit: 18:22 (17:22 UTC)

Prognose

Neuester Wetterbericht von vor 3 Stunden und 22 Minuten, um 14:00 UTC
Gültige Prognose vom 25 um 15 UTC bis 25 um 24 UTC
Wind 10 kt aus Süd
Sichtweite 10 km oder mehr
Aufgelockert bewölkt in der Höhe von 2000 ft
Übergehend zu
vom 25 um 16 UTC bis 25 um 19 UTC
Wind 10 kt aus Ost/Südost

TAF: EDGS 251400Z 2515/2524 19010KT 9999 SCT020 BECMG 2516/2519 12010KT

Wetterbeobachtungen und Prognosen von mehr als 4000 Flughäfen (METAR und TAF Bericht).

Die verfügbaren Stationen werden durch gelbe und rote Markierungen auf der Karte dargestellt.

Führen Sie die Maus auf sie, um den Namen der Station zu sehen.

Darauf klicken, um die Beobachtung von Wetterbeobachtungen und Prognosen zu sehen.

Um die Karte zu ändern : klicken Sie auf den grünen Tasten mit einem schwarzen Kreuz Zum Vergrößern, auf den grünen Button mit einem Gedankenstrich zu verkleinern, oder auf die grünen Pfeile für benachbarte Karten.


METAR-TAF: